createdAt,value
2018-02-05T00:02:08.796Z,59.78
2018-02-05T00:04:35.768Z,57.47
2018-02-05T00:07:02.014Z,61.35
2018-02-05T00:09:28.280Z,51.72
2018-02-05T00:11:54.528Z,55.72
2018-02-05T00:14:21.109Z,51.70
2018-02-05T00:16:47.359Z,52.45
2018-02-05T00:19:14.327Z,46.65
2018-02-05T00:21:41.319Z,52.00
2018-02-05T00:24:07.551Z,56.13
2018-02-05T00:26:33.809Z,55.17
2018-02-05T00:29:00.035Z,52.92
2018-02-05T00:31:26.287Z,53.25
2018-02-05T00:33:52.600Z,53.30
2018-02-05T00:36:18.832Z,51.50
2018-02-05T00:38:45.850Z,56.53
2018-02-05T00:41:12.088Z,43.08
2018-02-05T00:43:38.378Z,53.80
2018-02-05T00:46:04.617Z,55.53
2018-02-05T00:48:31.584Z,58.03
2018-02-05T00:50:57.905Z,51.55
2018-02-05T00:53:24.120Z,58.20
2018-02-05T00:55:50.373Z,54.58
2018-02-05T00:58:16.608Z,52.03
2018-02-05T01:00:42.871Z,55.53
2018-02-05T01:03:09.855Z,54.67
2018-02-05T01:05:36.083Z,49.58
2018-02-05T01:08:02.364Z,51.10
2018-02-05T01:10:29.363Z,53.72
2018-02-05T01:12:55.619Z,41.03
2018-02-05T01:15:21.879Z,47.50
2018-02-05T01:17:48.117Z,49.80
2018-02-05T01:20:14.378Z,49.95
2018-02-05T01:22:40.622Z,45.38
2018-02-05T01:25:06.853Z,47.90
2018-02-05T01:27:33.079Z,42.30
2018-02-05T01:29:59.294Z,45.05
2018-02-05T01:32:26.299Z,46.50
2018-02-05T01:34:52.578Z,42.92
2018-02-05T01:37:18.820Z,44.10
2018-02-05T01:39:45.064Z,46.90
2018-02-05T01:42:11.315Z,47.58
2018-02-05T01:44:38.284Z,48.53
2018-02-05T01:47:04.531Z,52.15
2018-02-05T01:49:30.783Z,44.70
2018-02-05T01:51:57.022Z,52.62
2018-02-05T01:54:23.277Z,42.08
2018-02-05T01:56:49.517Z,46.75
2018-02-05T01:59:15.760Z,51.75
2018-02-05T02:01:42.019Z,52.25
2018-02-05T02:04:08.293Z,46.70
2018-02-05T02:06:35.248Z,52.70
2018-02-05T02:09:01.487Z,50.40
2018-02-05T02:11:27.729Z,48.00
2018-02-05T02:13:54.709Z,54.78
2018-02-05T02:16:21.326Z,45.80
2018-02-05T02:18:47.551Z,49.42
2018-02-05T02:21:13.785Z,44.42
2018-02-05T02:23:40.037Z,47.22
2018-02-05T02:26:06.273Z,51.22
2018-02-05T02:28:32.546Z,46.92
2018-02-05T02:30:59.514Z,50.90
2018-02-05T02:33:27.717Z,44.33
2018-02-05T02:35:54.361Z,46.47
2018-02-05T02:38:21.551Z,48.83
2018-02-05T02:40:48.083Z,50.60
2018-02-05T02:43:14.346Z,44.67
2018-02-05T02:45:40.576Z,43.47
2018-02-05T02:48:06.817Z,48.03
2018-02-05T02:50:33.095Z,46.50
2018-02-05T02:52:59.347Z,52.10
2018-02-05T02:55:25.575Z,44.38
2018-02-05T02:57:51.844Z,49.83
2018-02-05T03:00:18.815Z,46.15
2018-02-05T03:02:45.053Z,44.08
2018-02-05T03:05:11.338Z,44.35
2018-02-05T03:07:37.570Z,48.78
2018-02-05T03:10:03.838Z,52.28
2018-02-05T03:12:30.089Z,49.30
2018-02-05T03:14:56.354Z,45.12
2018-02-05T03:17:22.586Z,55.25
2018-02-05T03:19:49.553Z,42.75
2018-02-05T03:22:15.823Z,55.85
2018-02-05T03:24:42.872Z,52.00
2018-02-05T03:27:09.125Z,44.28
2018-02-05T03:29:35.377Z,41.00
2018-02-05T03:32:01.619Z,46.78
2018-02-05T03:34:27.915Z,46.20
2018-02-05T03:36:54.141Z,42.38
2018-02-05T03:39:21.145Z,48.58
2018-02-05T03:41:47.386Z,45.00
2018-02-05T03:44:13.672Z,43.20
2018-02-05T03:46:39.901Z,42.08
2018-02-05T03:49:06.177Z,49.17
2018-02-05T03:51:33.198Z,48.05
2018-02-05T03:53:59.452Z,47.75
2018-02-05T03:56:26.460Z,41.80
2018-02-05T03:58:52.685Z,50.83
2018-02-05T04:01:18.928Z,45.15
2018-02-05T04:03:45.164Z,59.78
2018-02-05T04:06:11.372Z,42.53
2018-02-05T04:08:37.614Z,51.22
2018-02-05T04:11:03.867Z,47.95
2018-02-05T04:13:30.821Z,56.45
2018-02-05T04:15:57.887Z,45.38
2018-02-05T04:18:24.902Z,40.83
2018-02-05T04:20:51.149Z,48.08
2018-02-05T04:23:17.424Z,46.10
2018-02-05T04:25:44.441Z,42.75
2018-02-05T04:28:10.676Z,51.85
2018-02-05T04:30:37.653Z,50.92
2018-02-05T04:33:03.906Z,52.97
2018-02-05T04:35:30.230Z,51.72
2018-02-05T04:37:56.466Z,55.40
2018-02-05T04:40:22.718Z,56.40
2018-02-05T04:42:48.965Z,49.92
2018-02-05T04:45:15.236Z,50.67
2018-02-05T04:47:42.231Z,42.05
2018-02-05T04:50:08.484Z,37.38
2018-02-05T04:52:34.724Z,38.50
2018-02-05T04:55:01.008Z,36.88
2018-02-05T04:57:27.997Z,34.90
2018-02-05T04:59:54.233Z,41.22
2018-02-05T05:02:20.480Z,28.75
2018-02-05T05:04:46.706Z,30.88
2018-02-05T05:07:12.943Z,33.28
2018-02-05T05:09:39.163Z,27.95
2018-02-05T05:12:06.159Z,37.22
2018-02-05T05:14:32.396Z,33.22
2018-02-05T05:16:58.641Z,34.50
2018-02-05T05:19:24.884Z,33.67
2018-02-05T05:21:51.122Z,32.17
2018-02-05T05:24:17.373Z,33.78
2018-02-05T05:26:43.612Z,37.10
2018-02-05T05:29:09.870Z,41.72
2018-02-05T05:31:36.108Z,33.33
2018-02-05T05:34:02.363Z,38.58
2018-02-05T05:36:28.631Z,36.05
2018-02-05T05:38:55.646Z,39.42
2018-02-05T05:41:21.881Z,29.20
2018-02-05T05:43:48.168Z,36.88
2018-02-05T05:46:15.173Z,34.92
2018-02-05T05:48:41.426Z,33.53
2018-02-05T05:51:07.684Z,30.00
2018-02-05T05:53:33.943Z,33.75
2018-02-05T05:56:00.180Z,46.88
2018-02-05T05:58:26.423Z,34.70
2018-02-05T06:00:52.663Z,32.72
2018-02-05T06:03:18.896Z,39.83
2018-02-05T06:05:45.134Z,31.17
2018-02-05T06:08:11.387Z,33.63
2018-02-05T06:10:37.665Z,34.25
2018-02-05T06:13:03.961Z,40.22
2018-02-05T06:15:30.173Z,34.08
2018-02-05T06:17:56.428Z,35.60
2018-02-05T06:20:22.677Z,38.35
2018-02-05T06:22:48.910Z,36.10
2018-02-05T06:25:15.142Z,37.38
2018-02-05T06:27:41.414Z,36.88
2018-02-05T06:30:07.632Z,40.38
2018-02-05T06:32:33.887Z,44.58
2018-02-05T06:35:00.264Z,47.17
2018-02-05T06:37:27.255Z,45.78
2018-02-05T06:39:53.603Z,37.83
2018-02-05T06:42:19.845Z,31.70
2018-02-05T06:44:46.096Z,33.85
2018-02-05T06:47:12.369Z,34.10
2018-02-05T06:49:39.357Z,33.03
2018-02-05T06:52:17.832Z,35.75
2018-02-05T06:54:56.293Z,39.03
2018-02-05T06:57:23.305Z,40.42
2018-02-05T06:59:49.547Z,40.22
2018-02-05T07:02:16.558Z,38.25
2018-02-05T07:04:42.801Z,40.80
2018-02-05T07:07:09.068Z,32.38
2018-02-05T07:09:35.311Z,32.58
2018-02-05T07:12:01.553Z,37.47
2018-02-05T07:14:27.814Z,36.95
2018-02-05T07:16:54.040Z,36.53
2018-02-05T07:19:20.336Z,34.58
2018-02-05T07:21:46.709Z,45.58
2018-02-05T07:24:12.957Z,35.45
2018-02-05T07:26:39.194Z,35.35
2018-02-05T07:29:05.452Z,38.75
2018-02-05T07:31:31.720Z,29.48
2018-02-05T07:33:58.068Z,42.90
2018-02-05T07:36:24.328Z,42.85
2018-02-05T07:38:51.314Z,33.38
2018-02-05T07:41:17.592Z,40.12
2018-02-05T07:43:43.846Z,37.38
2018-02-05T07:46:10.874Z,38.85
2018-02-05T07:48:37.174Z,40.50
2018-02-05T07:51:03.456Z,33.38
2018-02-05T07:53:29.720Z,35.17
2018-02-05T07:55:55.972Z,35.15
2018-02-05T07:58:22.232Z,40.17
2018-02-05T08:00:48.465Z,49.75
2018-02-05T08:03:14.718Z,34.85
2018-02-05T08:05:40.996Z,46.85
2018-02-05T08:08:07.298Z,34.35
2018-02-05T08:10:33.574Z,37.63
2018-02-05T08:12:59.828Z,39.20
2018-02-05T08:15:26.088Z,33.50
2018-02-05T08:17:52.332Z,32.22
2018-02-05T08:20:18.623Z,39.47
2018-02-05T08:22:44.871Z,34.28
2018-02-05T08:25:11.138Z,27.55
2018-02-05T08:27:37.400Z,37.25
2018-02-05T08:30:03.660Z,34.50
2018-02-05T08:32:30.627Z,35.88
2018-02-05T08:34:56.946Z,41.15
2018-02-05T08:37:23.232Z,37.95
2018-02-05T08:39:49.494Z,42.80
2018-02-05T08:42:15.783Z,35.20
2018-02-05T08:44:42.062Z,37.55
2018-02-05T08:47:08.315Z,38.05
2018-02-05T08:49:34.566Z,37.83
2018-02-05T08:52:00.788Z,37.00
2018-02-05T08:54:27.063Z,36.00
2018-02-05T08:56:53.300Z,39.78
2018-02-05T08:59:19.561Z,37.78
2018-02-05T09:01:46.573Z,39.10
2018-02-05T09:04:12.839Z,35.72
2018-02-05T09:06:39.127Z,44.30
2018-02-05T09:09:05.367Z,48.30
2018-02-05T09:11:31.616Z,36.15
2018-02-05T09:13:57.854Z,44.47
2018-02-05T09:16:24.117Z,38.17
2018-02-05T09:18:50.354Z,43.60
2018-02-05T09:21:16.609Z,34.55
2018-02-05T09:23:42.907Z,40.55
2018-02-05T09:26:09.900Z,39.58
2018-02-05T09:28:36.126Z,45.55
2018-02-05T09:31:02.400Z,37.35
2018-02-05T09:33:29.971Z,45.83
2018-02-05T09:35:56.266Z,39.42
2018-02-05T09:38:22.507Z,37.17
2018-02-05T09:40:48.770Z,44.80
2018-02-05T09:43:15.031Z,44.75
2018-02-05T09:45:41.251Z,48.53
2018-02-05T09:48:07.512Z,42.70
2018-02-05T09:50:33.779Z,47.30
2018-02-05T09:53:00.047Z,34.58
2018-02-05T09:55:26.326Z,45.10
2018-02-05T09:57:52.588Z,45.30
2018-02-05T10:00:18.825Z,46.97
2018-02-05T10:02:45.082Z,45.72
2018-02-05T10:05:11.331Z,43.55
2018-02-05T10:07:37.562Z,40.67
2018-02-05T10:10:03.836Z,43.40
2018-02-05T10:12:30.817Z,43.50
2018-02-05T10:14:57.065Z,42.20
2018-02-05T10:17:23.325Z,39.95
2018-02-05T10:19:49.577Z,43.50
2018-02-05T10:22:15.845Z,44.35
2018-02-05T10:24:42.819Z,44.80
2018-02-05T10:27:09.076Z,54.70
2018-02-05T10:29:35.324Z,44.35
2018-02-05T10:32:01.563Z,46.22
2018-02-05T10:34:27.872Z,50.08
2018-02-05T10:36:54.905Z,51.35
2018-02-05T10:39:21.179Z,48.55
2018-02-05T10:41:48.189Z,47.03
2018-02-05T10:44:14.436Z,44.30
2018-02-05T10:46:40.659Z,45.20
2018-02-05T10:49:06.918Z,59.42
2018-02-05T10:51:33.170Z,45.85
2018-02-05T10:53:59.447Z,54.22
2018-02-05T10:56:25.712Z,49.58
2018-02-05T10:58:51.949Z,53.55
2018-02-05T11:01:18.208Z,47.83
2018-02-05T11:03:44.421Z,47.15
2018-02-05T11:06:10.684Z,46.65
2018-02-05T11:08:36.932Z,63.15
2018-02-05T11:11:03.189Z,49.08
2018-02-05T11:13:29.439Z,52.08
2018-02-05T11:15:55.753Z,48.45
2018-02-05T11:18:22.010Z,48.22
2018-02-05T11:20:48.264Z,57.33
2018-02-05T11:23:15.307Z,46.45
2018-02-05T11:25:41.543Z,41.72
2018-02-05T11:28:07.773Z,48.15
2018-02-05T11:30:34.048Z,43.33
2018-02-05T11:33:00.291Z,45.50
2018-02-05T11:35:26.681Z,46.22
2018-02-05T11:37:52.912Z,48.97
2018-02-05T11:40:19.472Z,50.25
2018-02-05T11:42:45.697Z,44.92
2018-02-05T11:45:11.939Z,46.85
2018-02-05T11:47:38.241Z,42.22
2018-02-05T11:50:04.507Z,46.70
2018-02-05T11:52:31.480Z,44.55
2018-02-05T11:54:57.741Z,52.38
2018-02-05T11:57:23.992Z,46.10
2018-02-05T11:59:50.984Z,49.63
2018-02-05T12:02:17.259Z,72.95
2018-02-05T12:04:43.519Z,40.22
2018-02-05T12:07:09.768Z,42.42
2018-02-05T12:09:36.058Z,38.63
2018-02-05T12:12:03.036Z,42.15
2018-02-05T12:14:29.296Z,43.85
2018-02-05T12:16:55.548Z,32.28
2018-02-05T12:19:21.826Z,38.70
2018-02-05T12:21:48.101Z,40.03
2018-02-05T12:24:14.380Z,35.42
2018-02-05T12:26:40.628Z,37.42
2018-02-05T12:29:06.994Z,40.50
2018-02-05T12:31:33.276Z,35.25
2018-02-05T12:33:59.562Z,34.75
2018-02-05T12:36:25.790Z,34.75
2018-02-05T12:38:52.791Z,33.88
2018-02-05T12:41:19.816Z,35.35
2018-02-05T12:43:46.068Z,30.95
2018-02-05T12:46:12.316Z,36.13
2018-02-05T12:48:38.585Z,32.80
2018-02-05T12:51:05.579Z,34.35
2018-02-05T12:53:31.862Z,32.80
2018-02-05T12:55:58.133Z,34.45
2018-02-05T12:58:24.434Z,34.30
2018-02-05T13:00:56.722Z,32.63
2018-02-05T13:03:40.861Z,32.03
2018-02-05T13:06:08.929Z,36.05
2018-02-05T13:08:35.190Z,40.67
2018-02-05T13:11:01.434Z,34.33
2018-02-05T13:13:27.705Z,39.55
2018-02-05T13:15:54.710Z,36.58
2018-02-05T13:18:20.957Z,38.70
2018-02-05T13:20:47.204Z,42.60
2018-02-05T13:23:13.455Z,37.90
2018-02-05T13:25:39.708Z,40.97
2018-02-05T13:28:05.936Z,42.33
2018-02-05T13:30:32.917Z,37.58
2018-02-05T13:32:59.909Z,39.85
2018-02-05T13:35:26.146Z,42.38
2018-02-05T13:37:52.400Z,38.28
2018-02-05T13:40:18.636Z,40.35
2018-02-05T13:42:44.933Z,35.72
2018-02-05T13:45:11.215Z,41.63
2018-02-05T13:47:37.445Z,41.05
2018-02-05T13:50:03.714Z,41.33
2018-02-05T13:52:29.985Z,39.17
2018-02-05T13:54:56.260Z,40.83
2018-02-05T13:57:22.519Z,41.83
2018-02-05T13:59:48.763Z,38.13
2018-02-05T14:02:15.009Z,40.35
2018-02-05T14:04:41.260Z,42.20
2018-02-05T14:07:07.555Z,37.20
2018-02-05T14:09:34.532Z,41.47
2018-02-05T14:12:00.814Z,41.88
2018-02-05T14:14:27.049Z,41.75
2018-02-05T14:16:53.310Z,40.00
2018-02-05T14:19:19.579Z,40.95
2018-02-05T14:21:46.545Z,35.75
2018-02-05T14:24:13.544Z,39.70
2018-02-05T14:26:40.536Z,36.42
2018-02-05T14:29:07.511Z,32.13
2018-02-05T14:31:34.517Z,34.55
2018-02-05T14:34:00.784Z,40.12
2018-02-05T14:36:27.053Z,43.70
2018-02-05T14:38:54.032Z,43.25
2018-02-05T14:41:20.273Z,41.42
2018-02-05T14:43:46.527Z,37.10
2018-02-05T14:46:12.761Z,36.92
2018-02-05T14:48:39.053Z,40.92
2018-02-05T14:51:05.279Z,36.90
2018-02-05T14:53:31.520Z,39.38
2018-02-05T14:55:57.790Z,35.45
2018-02-05T14:58:24.769Z,36.20
2018-02-05T15:00:51.036Z,37.65
2018-02-05T15:03:17.301Z,37.10
2018-02-05T15:05:43.556Z,35.72
2018-02-05T15:08:09.838Z,38.28
2018-02-05T15:10:36.102Z,44.47
2018-02-05T15:13:02.398Z,40.78
2018-02-05T15:15:29.411Z,35.80
2018-02-05T15:17:55.636Z,35.50
2018-02-05T15:20:21.876Z,36.00
2018-02-05T15:22:48.139Z,34.83
2018-02-05T15:25:14.386Z,34.05
2018-02-05T15:27:40.686Z,35.60
2018-02-05T15:30:06.988Z,38.92
2018-02-05T15:32:33.255Z,34.70
2018-02-05T15:35:00.271Z,32.63
2018-02-05T15:37:27.279Z,34.22
2018-02-05T15:39:53.562Z,39.90
2018-02-05T15:42:19.810Z,38.95
2018-02-05T15:44:46.052Z,40.05
2018-02-05T15:47:12.318Z,29.77
2018-02-05T15:49:39.301Z,31.30
2018-02-05T15:52:05.568Z,33.28
2018-02-05T15:54:31.805Z,36.63
2018-02-05T15:56:58.049Z,35.70
2018-02-05T15:59:24.306Z,40.58
2018-02-05T16:01:50.555Z,34.00
2018-02-05T16:04:16.819Z,30.90
2018-02-05T16:06:43.794Z,37.53
2018-02-05T16:09:10.797Z,36.92
2018-02-05T16:11:37.069Z,36.15
2018-02-05T16:14:03.316Z,32.13
2018-02-05T16:16:29.575Z,37.03
2018-02-05T16:18:56.569Z,37.92
2018-02-05T16:21:22.834Z,30.98
2018-02-05T16:23:49.090Z,39.17
2018-02-05T16:26:16.129Z,38.08
2018-02-05T16:28:43.059Z,33.20
2018-02-05T16:31:09.403Z,35.88
2018-02-05T16:33:35.689Z,34.50
2018-02-05T16:36:01.938Z,37.47
2018-02-05T16:38:28.977Z,38.47
2018-02-05T16:40:55.218Z,39.65
2018-02-05T16:43:21.505Z,38.17
2018-02-05T16:45:47.762Z,38.25
2018-02-05T16:48:14.030Z,38.03
2018-02-05T16:50:40.309Z,37.70
2018-02-05T16:53:07.323Z,34.15
2018-02-05T16:55:33.609Z,36.92
2018-02-05T16:57:59.918Z,35.97
2018-02-05T17:00:26.184Z,36.42
2018-02-05T17:02:52.428Z,35.95
2018-02-05T17:05:18.673Z,33.30
2018-02-05T17:07:45.671Z,34.80
2018-02-05T17:10:11.942Z,34.67
2018-02-05T17:12:38.203Z,31.62
2018-02-05T17:15:04.449Z,36.47
2018-02-05T17:17:30.710Z,40.47
2018-02-05T17:19:57.712Z,31.87
2018-02-05T17:22:23.972Z,33.55
2018-02-05T17:24:50.267Z,40.95
2018-02-05T17:27:16.540Z,33.53
2018-02-05T17:29:42.811Z,36.38
2018-02-05T17:32:09.111Z,34.42
2018-02-05T17:34:35.392Z,30.62
2018-02-05T17:37:02.442Z,44.15
2018-02-05T17:39:28.698Z,34.90
2018-02-05T17:41:54.978Z,33.40
2018-02-05T17:44:21.236Z,40.35
2018-02-05T17:46:47.839Z,33.47
2018-02-05T17:49:14.843Z,31.90
2018-02-05T17:51:41.137Z,36.83
2018-02-05T17:54:08.133Z,33.33
2018-02-05T17:56:34.457Z,31.60
2018-02-05T17:59:01.389Z,39.33
2018-02-05T18:01:28.448Z,33.72
2018-02-05T18:03:54.757Z,31.85
2018-02-05T18:06:21.084Z,35.05
2018-02-05T18:08:47.421Z,26.17
2018-02-05T18:11:13.744Z,29.12
2018-02-05T18:13:40.054Z,30.62
2018-02-05T18:16:06.378Z,37.58
2018-02-05T18:18:32.662Z,36.17
2018-02-05T18:20:59.709Z,32.00
2018-02-05T18:23:26.744Z,37.25
2018-02-05T18:25:53.041Z,35.20
2018-02-05T18:28:20.223Z,31.90
2018-02-05T18:30:46.531Z,31.98
2018-02-05T18:33:12.908Z,33.53
2018-02-05T18:35:39.299Z,29.63
2018-02-05T18:38:06.375Z,34.05
2018-02-05T18:40:32.712Z,31.08
2018-02-05T18:42:59.791Z,41.97
2018-02-05T18:45:26.461Z,27.15
2018-02-05T18:47:52.751Z,31.98
2018-02-05T18:50:19.037Z,29.20
2018-02-05T18:52:45.345Z,31.55
2018-02-05T18:55:12.415Z,33.67
2018-02-05T18:57:38.738Z,38.85
2018-02-05T19:00:17.269Z,39.55
2018-02-05T19:02:44.349Z,27.52
2018-02-05T19:05:11.412Z,30.65
2018-02-05T19:07:37.797Z,32.22
2018-02-05T19:10:04.195Z,30.65
2018-02-05T19:12:30.517Z,33.78
2018-02-05T19:14:56.857Z,29.02
2018-02-05T19:17:23.936Z,35.40
2018-02-05T19:19:51.094Z,32.70
2018-02-05T19:22:18.182Z,26.55
2018-02-05T19:24:44.561Z,45.22
2018-02-05T19:27:10.935Z,36.28
2018-02-05T19:29:37.997Z,38.40
2018-02-05T19:32:05.095Z,35.03
2018-02-05T19:34:31.528Z,38.33
2018-02-05T19:36:57.994Z,30.48
2018-02-05T19:39:24.403Z,36.95
2018-02-05T19:41:50.738Z,30.62
2018-02-05T19:44:17.861Z,32.95
2018-02-05T19:46:44.233Z,34.83
2018-02-05T19:49:11.333Z,42.40
2018-02-05T19:51:37.671Z,35.38
2018-02-05T19:54:04.068Z,33.33
2018-02-05T19:56:30.451Z,35.60
2018-02-05T19:58:56.828Z,30.58
2018-02-05T20:01:23.232Z,36.00
2018-02-05T20:03:49.667Z,32.30
2018-02-05T20:06:16.823Z,34.25
2018-02-05T20:08:43.960Z,38.55
2018-02-05T20:11:10.314Z,42.00
2018-02-05T20:13:36.658Z,32.47
2018-02-05T20:16:03.032Z,41.25
2018-02-05T20:18:30.158Z,32.90
2018-02-05T20:20:56.513Z,38.03
2018-02-05T20:23:23.655Z,33.50
2018-02-05T20:25:50.040Z,36.80
2018-02-05T20:28:16.376Z,32.60
2018-02-05T20:30:42.735Z,36.30
2018-02-05T20:33:09.124Z,37.35
2018-02-05T20:35:35.468Z,38.38
2018-02-05T20:38:01.815Z,41.22
2018-02-05T20:40:28.203Z,35.38
2018-02-05T20:42:54.564Z,34.33
2018-02-05T20:45:20.946Z,41.58
2018-02-05T20:47:47.286Z,36.10
2018-02-05T20:50:13.624Z,44.22
2018-02-05T20:52:40.001Z,36.33
2018-02-05T20:55:07.117Z,37.25
2018-02-05T20:57:33.481Z,36.88
2018-02-05T20:59:59.871Z,36.85
2018-02-05T21:02:26.226Z,45.33
2018-02-05T21:04:52.571Z,34.45
2018-02-05T21:07:18.920Z,32.70
2018-02-05T21:09:45.279Z,34.17
2018-02-05T21:12:11.604Z,36.45
2018-02-05T21:14:37.897Z,40.08
2018-02-05T21:17:04.202Z,35.85
2018-02-05T21:19:30.528Z,36.95
2018-02-05T21:21:56.819Z,36.10
2018-02-05T21:24:23.145Z,34.13
2018-02-05T21:26:50.213Z,34.67
2018-02-05T21:29:16.501Z,30.55
2018-02-05T21:31:42.809Z,36.00
2018-02-05T21:34:09.160Z,39.10
2018-02-05T21:36:35.432Z,37.13
2018-02-05T21:39:01.716Z,32.83
2018-02-05T21:41:27.997Z,43.45
2018-02-05T21:43:54.271Z,40.53
2018-02-05T21:46:20.530Z,33.70
2018-02-05T21:48:46.776Z,34.42
2018-02-05T21:51:13.035Z,36.92
2018-02-05T21:53:39.307Z,38.28
2018-02-05T21:56:06.292Z,38.65
2018-02-05T21:58:32.576Z,35.20
2018-02-05T22:00:58.838Z,39.65
2018-02-05T22:03:25.815Z,44.13
2018-02-05T22:05:52.082Z,39.65
2018-02-05T22:08:18.306Z,34.13
2018-02-05T22:10:44.569Z,38.90
2018-02-05T22:13:10.793Z,44.10
2018-02-05T22:15:37.022Z,36.40
2018-02-05T22:18:03.306Z,43.13
2018-02-05T22:20:29.669Z,38.20
2018-02-05T22:22:55.924Z,44.78
2018-02-05T22:25:22.894Z,39.47
2018-02-05T22:27:50.017Z,43.35
2018-02-05T22:30:16.227Z,39.72
2018-02-05T22:32:42.516Z,42.15
2018-02-05T22:35:08.888Z,38.97
2018-02-05T22:37:35.116Z,33.42
2018-02-05T22:40:02.159Z,34.88
2018-02-05T22:42:28.393Z,49.58
2018-02-05T22:44:54.639Z,41.10
2018-02-05T22:47:21.971Z,35.88
2018-02-05T22:49:48.209Z,44.40
2018-02-05T22:52:14.435Z,42.75
2018-02-05T22:54:40.678Z,42.60
2018-02-05T22:57:06.899Z,41.28
2018-02-05T22:59:33.165Z,49.33
2018-02-05T23:01:59.399Z,43.03
2018-02-05T23:04:25.661Z,42.67
2018-02-05T23:06:51.913Z,47.72
2018-02-05T23:09:18.130Z,41.17
2018-02-05T23:11:44.406Z,41.65
2018-02-05T23:14:10.632Z,38.50
2018-02-05T23:16:36.887Z,43.20
2018-02-05T23:19:03.129Z,42.78
2018-02-05T23:21:29.406Z,40.20
2018-02-05T23:23:55.622Z,46.37
2018-02-05T23:26:22.598Z,42.47
2018-02-05T23:28:48.838Z,40.33
2018-02-05T23:31:15.800Z,43.15
2018-02-05T23:33:42.161Z,39.92
2018-02-05T23:36:08.393Z,57.60
2018-02-05T23:38:34.604Z,38.45
2018-02-05T23:41:01.581Z,44.65
2018-02-05T23:43:27.796Z,49.25
2018-02-05T23:45:54.788Z,42.15
2018-02-05T23:48:21.036Z,39.25
2018-02-05T23:50:47.278Z,41.60
2018-02-05T23:53:13.501Z,46.40
2018-02-05T23:55:39.765Z,47.53
2018-02-05T23:58:05.984Z,45.12
